Time;durP1;ratioP1;P1;durP2;ratioP2;P2;SDS_P1;SDS_P2;PMS_P1;PMS_P2;Temp;Humidity;BMP_temperature;BMP_pressure;BME280_temperature;BME280_humidity;BME280_pressure;Samples;Min_cycle;Max_cycle;Signal;HPM_P1;HPM_P2
2022/06/02 00:02:21;;;;;;;10.70;7.93;;;;;;;22.94;53.48;99550.44;5013210;28;20025;-87
2022/06/02 00:04:58;;;;;;;9.10;8.20;;;;;;;22.85;53.88;99538.50;5016085;28;20034;-87
2022/06/02 00:07:38;;;;;;;10.73;8.63;;;;;;;22.73;53.88;99541.34;5010611;28;20025;-87
2022/06/02 00:10:22;;;;;;;10.73;9.48;;;;;;;22.48;54.12;99506.97;5010653;28;20442;-87
2022/06/02 00:13:18;;;;;;;12.27;8.90;;;;;;;22.65;54.18;99544.53;5012010;28;20022;-87
2022/06/02 00:15:52;;;;;;;11.32;9.18;;;;;;;22.61;54.09;99543.41;5011061;28;20114;-87
2022/06/02 00:18:40;;;;;;;14.18;9.77;;;;;;;22.57;54.22;99539.63;5010826;28;20104;-87
2022/06/02 00:21:25;;;;;;;14.18;9.38;;;;;;;22.54;54.54;99545.50;5010752;28;20410;-87
2022/06/02 00:24:06;;;;;;;9.68;8.65;;;;;;;22.55;54.17;99533.69;5010313;28;20018;-86
2022/06/02 00:26:39;;;;;;;10.70;8.93;;;;;;;22.49;54.29;99543.59;5010299;28;20017;-87
2022/06/02 00:29:16;;;;;;;11.15;10.00;;;;;;;22.04;54.10;99481.28;5010216;28;20112;-87
2022/06/02 00:32:06;;;;;;;12.35;9.63;;;;;;;22.47;54.30;99539.53;5011684;28;20084;-87
2022/06/02 00:34:52;;;;;;;12.35;9.50;;;;;;;22.41;54.32;99538.66;5011783;28;20025;-87
2022/06/02 00:37:17;;;;;;;12.55;11.05;;;;;;;22.40;54.30;99539.75;5010060;28;20018;-86
2022/06/02 00:39:46;;;;;;;12.88;10.68;;;;;;;21.55;54.33;99412.22;5011762;28;20028;-87
2022/06/02 00:42:32;;;;;;;15.80;10.73;;;;;;;21.78;54.57;99466.75;5011616;28;20088;-87
2022/06/02 00:44:59;;;;;;;11.80;10.52;;;;;;;21.76;54.72;99479.63;5011511;28;20022;-87
2022/06/02 00:47:37;;;;;;;15.13;9.80;;;;;;;22.17;55.06;99546.22;5011530;28;20411;-87
2022/06/02 00:50:16;;;;;;;14.27;10.38;;;;;;;22.18;54.87;99539.78;5010324;28;20084;-87
2022/06/02 00:52:51;;;;;;;11.60;9.30;;;;;;;21.80;54.74;99484.25;5011140;28;20076;-87
2022/06/02 00:58:47;;;;;;;10.02;8.52;;;;;;;21.65;55.08;99486.75;5011515;28;20037;-87
2022/06/02 01:01:15;;;;;;;;;;;;;;;22.04;55.46;99553.88;5010423;28;20503;-86
2022/06/02 01:03:47;;;;;;;12.40;9.05;;;;;;;21.97;55.24;99529.03;5010057;28;19909;-87
2022/06/02 01:06:32;;;;;;;10.90;8.77;;;;;;;22.23;55.19;99548.97;5011463;28;20509;-87
2022/06/02 01:09:00;;;;;;;9.18;8.25;;;;;;;22.20;55.42;99537.63;5011199;28;20101;-86
2022/06/02 01:11:25;;;;;;;9.80;8.02;;;;;;;22.24;55.44;99545.19;5009855;28;20057;-87
2022/06/02 01:13:51;;;;;;;11.60;8.65;;;;;;;22.28;55.35;99540.94;5009994;28;20049;-86
2022/06/02 01:16:24;;;;;;;9.63;8.20;;;;;;;21.74;55.25;99455.69;5011311;28;20507;-87
2022/06/02 01:19:14;;;;;;;12.20;8.80;;;;;;;22.38;55.78;99535.69;5011358;28;20037;-87
2022/06/02 01:22:29;;;;;;;10.07;8.43;;;;;;;22.24;55.67;99510.25;5013432;28;20029;-87
2022/06/02 01:25:07;;;;;;;10.93;9.07;;;;;;;22.36;55.64;99519.78;5032565;28;20395;-87
2022/06/02 01:28:17;;;;;;;11.50;8.38;;;;;;;22.33;55.76;99522.19;5015143;28;20061;-87
2022/06/02 01:30:56;;;;;;;14.57;8.48;;;;;;;22.31;55.75;99522.44;5014538;28;20022;-87
2022/06/02 01:33:25;;;;;;;11.30;8.45;;;;;;;22.27;55.87;99521.28;5013182;28;20025;-86
2022/06/02 01:35:50;;;;;;;9.35;7.97;;;;;;;22.28;55.91;99519.41;5014237;28;20022;-87
2022/06/02 01:38:30;;;;;;;12.00;8.38;;;;;;;21.32;56.11;99415.16;5012954;28;20030;-87
2022/06/02 01:41:04;;;;;;;8.73;7.82;;;;;;;22.23;56.14;99522.88;5013136;28;20025;-87
2022/06/02 01:43:36;;;;;;;10.65;7.63;;;;;;;22.20;56.10;99526.88;5013259;28;20034;-87
2022/06/02 01:46:01;;;;;;;9.60;8.43;;;;;;;22.14;56.17;99509.06;5012789;28;20060;-87
2022/06/02 01:48:32;;;;;;;9.88;7.70;;;;;;;22.10;56.40;99518.72;5012720;28;20030;-87
2022/06/02 01:51:34;;;;;;;10.57;7.78;;;;;;;22.07;56.27;99518.41;5014068;28;20022;-87
2022/06/02 01:54:36;;;;;;;11.88;8.82;;;;;;;22.00;56.59;99515.91;5012661;28;20116;-87
2022/06/02 01:57:35;;;;;;;10.75;7.40;;;;;;;22.02;56.43;99515.63;5013939;28;20482;-87
2022/06/02 02:00:14;;;;;;;11.50;8.18;;;;;;;22.05;56.42;99520.53;5014265;28;20048;-87
2022/06/02 02:02:53;;;;;;;10.07;8.50;;;;;;;22.08;56.41;99518.16;5013990;28;20026;-87
2022/06/02 02:05:46;;;;;;;11.32;8.52;;;;;;;21.79;56.35;99471.06;5013953;28;20030;-87
2022/06/02 02:08:37;;;;;;;13.07;8.90;;;;;;;22.05;56.30;99520.53;5012605;28;20418;-87
2022/06/02 02:11:17;;;;;;;11.00;7.95;;;;;;;22.05;56.34;99518.66;5013625;28;20509;-87
2022/06/02 02:14:16;;;;;;;12.02;8.02;;;;;;;21.69;56.40;99469.06;5012722;28;20510;-87
2022/06/02 02:17:29;;;;;;;14.60;8.88;;;;;;;22.09;56.26;99517.09;5013437;28;20167;-87
2022/06/02 02:20:09;;;;;;;13.73;8.60;;;;;;;22.18;56.12;99520.94;5015447;28;20042;-87
2022/06/02 02:22:37;;;;;;;13.38;8.50;;;;;;;22.23;55.94;99522.06;5014571;28;20028;-87
2022/06/02 02:25:31;;;;;;;11.13;8.63;;;;;;;22.21;55.90;99508.88;5012814;28;20064;-87
2022/06/02 02:28:30;;;;;;;12.43;9.27;;;;;;;22.17;56.34;99513.13;5012879;28;20028;-87
2022/06/02 02:31:32;;;;;;;11.23;9.38;;;;;;;22.08;56.42;99512.78;5013911;28;20092;-86
2022/06/02 02:34:07;;;;;;;13.80;9.10;;;;;;;22.05;56.23;99517.84;5013633;28;20387;-87
2022/06/02 02:36:36;;;;;;;15.88;10.70;;;;;;;22.04;56.32;99510.84;5012871;28;20030;-87
2022/06/02 02:39:31;;;;;;;12.80;9.80;;;;;;;22.06;56.41;99511.41;5014782;28;20430;-87
2022/06/02 02:42:11;;;;;;;14.07;10.15;;;;;;;21.78;56.35;99472.13;5013947;28;20033;-87
2022/06/02 02:45:10;;;;;;;15.32;10.18;;;;;;;22.05;56.70;99513.28;5012047;28;20032;-87
2022/06/02 02:47:59;;;;;;;15.48;10.07;;;;;;;21.83;56.09;99474.84;5012107;28;20066;-87
2022/06/02 02:50:40;;;;;;;13.38;9.40;;;;;;;22.03;56.48;99518.09;5012747;28;20029;-87
2022/06/02 02:53:18;;;;;;;12.65;9.88;;;;;;;22.08;56.22;99514.66;5012508;28;20064;-87
2022/06/02 02:56:09;;;;;;;14.05;9.15;;;;;;;22.13;56.19;99520.91;5011707;28;20065;-87
2022/06/02 02:59:00;;;;;;;12.73;9.50;;;;;;;22.16;55.99;99520.38;5013174;28;20041;-87
2022/06/02 03:01:47;;;;;;;14.07;9.32;;;;;;;22.02;56.22;99489.56;5012963;28;20026;-87
2022/06/02 03:04:15;;;;;;;11.50;9.05;;;;;;;22.18;55.84;99520.94;5011717;28;20105;-87
2022/06/02 03:06:42;;;;;;;14.38;9.10;;;;;;;22.01;55.69;99489.81;5012695;28;20021;-87
2022/06/02 03:09:18;;;;;;;11.05;8.20;;;;;;;22.27;55.67;99525.88;5011430;28;20018;-87
2022/06/02 03:11:56;;;;;;;11.95;9.20;;;;;;;22.24;55.69;99521.00;5012358;28;20029;-86
2022/06/02 03:14:48;;;;;;;10.68;7.70;;;;;;;21.95;55.63;99478.22;5011352;28;20022;-88
2022/06/02 03:17:28;;;;;;;12.57;8.82;;;;;;;21.88;55.39;99472.22;5011169;28;20025;-86
2022/06/02 03:20:18;;;;;;;12.85;7.80;;;;;;;22.31;55.49;99524.31;5012610;28;20461;-87
2022/06/02 03:23:11;;;;;;;10.20;7.38;;;;;;;22.36;55.27;99529.75;5011628;28;20014;-87
2022/06/02 03:25:48;;;;;;;7.75;6.95;;;;;;;22.28;55.15;99509.47;5011599;28;20025;-87
2022/06/02 03:28:17;;;;;;;14.75;8.02;;;;;;;22.41;54.87;99527.91;5011389;28;20032;-87
2022/06/02 03:30:56;;;;;;;10.70;7.40;;;;;;;21.93;54.95;99445.38;5013246;28;20081;-87
2022/06/02 03:33:42;;;;;;;11.38;7.63;;;;;;;21.98;54.65;99453.50;5011738;28;20018;-87
2022/06/02 03:36:18;;;;;;;9.35;6.43;;;;;;;22.48;54.68;99525.00;5011979;28;20021;-87
2022/06/02 03:39:22;;;;;;;9.93;6.78;;;;;;;22.53;54.58;99525.06;5010802;28;20030;-86
2022/06/02 03:41:53;;;;;;;10.25;7.13;;;;;;;22.25;54.38;99501.09;5010270;28;20026;-87
2022/06/02 03:45:02;;;;;;;10.45;7.60;;;;;;;22.34;54.52;99492.34;5034602;28;20055;-87
2022/06/02 03:47:49;;;;;;;10.32;7.57;;;;;;;22.60;54.32;99533.72;5035872;28;20026;-87
2022/06/02 03:50:50;;;;;;;9.63;6.90;;;;;;;22.63;54.08;99527.00;5018955;28;20038;-86
2022/06/02 03:53:37;;;;;;;10.40;6.27;;;;;;;22.66;53.88;99530.00;5016728;28;20485;-87
2022/06/02 03:56:32;;;;;;;7.65;6.13;;;;;;;22.72;53.77;99528.97;5010913;28;20038;-87
2022/06/02 03:59:03;;;;;;;7.93;6.18;;;;;;;22.76;53.56;99527.38;5011100;28;20080;-87
2022/06/02 04:01:36;;;;;;;10.00;6.55;;;;;;;22.12;53.38;99417.09;5012178;28;20057;-87
2022/06/02 04:04:28;;;;;;;8.65;6.40;;;;;;;22.86;53.29;99532.06;5010792;28;20105;-87
2022/06/02 04:07:15;;;;;;;12.05;7.25;;;;;;;22.88;53.31;99531.81;5010761;28;20084;-87
2022/06/02 04:10:05;;;;;;;11.60;6.68;;;;;;;22.92;53.17;99531.03;5010599;28;20022;-86
2022/06/02 04:16:05;;;;;;;10.40;7.03;;;;;;;22.73;53.01;99495.59;5012191;28;20121;-86
2022/06/02 04:18:59;;;;;;;9.10;6.72;;;;;;;22.95;53.33;99541.28;5010677;28;20026;-87
2022/06/02 04:21:37;;;;;;;9.73;6.53;;;;;;;22.29;53.65;99461.88;5010295;28;20030;-87
2022/06/02 04:24:14;;;;;;;8.77;6.45;;;;;;;22.91;53.72;99542.88;5011737;28;20022;-87
2022/06/02 04:26:58;;;;;;;8.25;6.15;;;;;;;22.94;53.54;99536.97;5010448;28;20100;-87
2022/06/02 04:29:48;;;;;;;9.85;5.85;;;;;;;23.00;53.40;99538.63;5011717;28;20045;-87
2022/06/02 04:32:40;;;;;;;7.45;5.70;;;;;;;22.73;53.23;99492.91;5010437;28;20042;-87
2022/06/02 04:35:14;;;;;;;9.57;5.63;;;;;;;23.15;52.99;99537.94;5010637;28;20105;-87
2022/06/02 04:37:53;;;;;;;8.23;5.05;;;;;;;22.66;52.72;99465.41;5011735;28;20034;-87
2022/06/02 04:40:39;;;;;;;9.10;5.13;;;;;;;23.27;52.68;99548.50;5010396;28;20029;-86
2022/06/02 04:43:19;;;;;;;9.13;4.80;;;;;;;23.30;52.42;99554.19;5010121;28;20049;-86
2022/06/02 04:46:07;;;;;;;7.15;5.45;;;;;;;23.26;52.42;99547.69;5009910;28;20018;-86
2022/06/02 04:48:57;;;;;;;13.30;5.50;;;;;;;23.26;52.29;99550.38;5010003;28;20034;-87
2022/06/02 04:51:50;;;;;;;5.53;4.70;;;;;;;23.24;52.43;99549.84;5011387;28;20084;-86
2022/06/02 04:54:27;;;;;;;7.00;5.00;;;;;;;23.23;52.69;99556.28;5012006;28;20515;-87
2022/06/02 04:57:05;;;;;;;7.97;5.00;;;;;;;23.09;52.70;99525.50;5015383;28;20030;-87
2022/06/02 04:59:31;;;;;;;7.68;4.93;;;;;;;23.35;52.48;99554.22;5015006;28;20022;-86
2022/06/02 05:02:15;;;;;;;7.05;5.05;;;;;;;23.44;52.36;99560.72;5013868;28;20030;-87
2022/06/02 05:05:02;;;;;;;7.90;5.50;;;;;;;22.85;52.21;99462.31;5013830;28;20030;-87
2022/06/02 05:07:55;;;;;;;6.43;4.50;;;;;;;23.57;51.82;99555.97;5014989;28;20491;-86
2022/06/02 05:10:56;;;;;;;8.50;5.50;;;;;;;23.60;51.96;99561.63;5013574;28;20472;-87
2022/06/02 05:13:59;;;;;;;6.53;5.30;;;;;;;23.64;51.90;99553.84;5013581;28;20036;-87
2022/06/02 05:16:52;;;;;;;7.20;4.38;;;;;;;23.69;51.67;99570.84;5014877;28;20026;-86
2022/06/02 05:19:36;;;;;;;7.03;4.88;;;;;;;23.22;51.60;99486.53;5013770;28;20117;-86
2022/06/02 05:22:33;;;;;;;7.88;4.72;;;;;;;23.69;51.63;99561.94;5015085;28;20415;-87
2022/06/02 05:25:04;;;;;;;6.45;4.53;;;;;;;23.74;51.80;99561.97;5015449;28;20022;-86
2022/06/02 05:27:51;;;;;;;6.15;5.50;;;;;;;23.83;52.00;99555.03;5013784;28;20022;-87
2022/06/02 05:30:36;;;;;;;6.75;5.43;;;;;;;23.34;51.88;99477.16;5015259;28;20034;-86
2022/06/02 05:33:04;;;;;;;8.80;5.20;;;;;;;23.89;52.36;99559.34;5013614;28;20483;-86
2022/06/02 05:35:43;;;;;;;7.03;4.78;;;;;;;23.56;52.85;99495.84;5013130;28;20026;-86
2022/06/02 05:38:18;;;;;;;7.85;4.78;;;;;;;23.91;53.17;99559.09;5013068;28;20026;-86
2022/06/02 05:40:54;;;;;;;9.60;6.00;;;;;;;23.66;53.11;99514.75;5013373;28;20030;-86
2022/06/02 05:43:19;;;;;;;7.80;5.40;;;;;;;24.05;52.91;99571.00;5014499;28;20029;-86
2022/06/02 05:45:57;;;;;;;10.40;6.10;;;;;;;24.15;53.19;99562.13;5016891;28;20407;-86
2022/06/02 05:48:50;;;;;;;8.80;6.10;;;;;;;24.16;53.00;99561.84;5020939;28;20084;-86
2022/06/02 05:51:29;;;;;;;6.47;5.57;;;;;;;24.17;53.24;99566.16;5014661;28;20038;-85
2022/06/02 05:54:36;;;;;;;5.30;4.80;;;;;;;24.23;52.93;99561.59;5013099;28;20092;-86
2022/06/02 05:57:44;;;;;;;5.75;4.97;;;;;;;23.75;53.61;99488.91;5032934;28;20029;-87
2022/06/02 06:00:28;;;;;;;10.27;5.93;;;;;;;24.37;53.50;99570.81;5029158;28;20045;-85
2022/06/02 06:03:35;;;;;;;5.88;5.30;;;;;;;24.43;53.65;99572.44;5033152;28;20039;-87
2022/06/02 06:06:18;;;;;;;7.20;4.85;;;;;;;24.47;53.13;99568.13;5031335;28;20022;-87
2022/06/02 06:09:02;;;;;;;7.78;4.95;;;;;;;24.54;53.53;99579.50;5014884;28;20029;-86
2022/06/02 06:12:09;;;;;;;8.98;5.47;;;;;;;24.51;54.25;99573.81;5032620;28;20079;-88
2022/06/02 06:14:34;;;;;;;8.13;6.32;;;;;;;24.58;53.33;99572.50;5032806;28;20029;-86
2022/06/02 06:17:21;;;;;;;6.95;5.32;;;;;;;24.49;53.78;99548.97;5032721;28;20111;-87
2022/06/02 06:20:00;;;;;;;8.68;5.30;;;;;;;24.72;53.61;99580.88;5031023;28;20029;-85
2022/06/02 06:22:40;;;;;;;7.93;5.47;;;;;;;24.77;53.32;99572.78;5027468;28;20068;-86
2022/06/02 06:25:22;;;;;;;5.47;4.77;;;;;;;24.86;53.40;99575.72;5031161;28;20036;-85
2022/06/02 06:28:17;;;;;;;9.63;7.57;;;;;;;24.98;53.26;99574.41;5012476;28;20104;-87
2022/06/02 06:30:58;;;;;;;9.90;5.93;;;;;;;25.07;52.88;99568.44;5030973;28;20045;-87
2022/06/02 06:34:06;;;;;;;9.23;6.00;;;;;;;25.16;52.82;99564.13;5013522;28;20044;-86
2022/06/02 06:36:56;;;;;;;8.85;5.65;;;;;;;25.26;52.55;99564.91;5041586;28;20289;-86
2022/06/02 06:40:17;;;;;;;5.57;4.70;;;;;;;25.03;51.84;99511.47;5026819;28;20030;-86
2022/06/02 06:43:21;;;;;;;5.57;4.28;;;;;;;24.97;51.46;99509.81;5032505;28;20079;-85
2022/06/02 06:46:05;;;;;;;7.60;4.93;;;;;;;25.39;50.98;99555.44;5028714;28;20033;-85
2022/06/02 06:48:42;;;;;;;8.55;4.75;;;;;;;25.47;51.33;99554.88;5032304;28;20025;-86
2022/06/02 06:51:36;;;;;;;7.00;5.72;;;;;;;25.53;50.90;99558.38;5025993;28;20029;-87
2022/06/02 06:54:20;;;;;;;7.63;5.55;;;;;;;25.39;50.83;99525.72;5011407;28;20057;-87
2022/06/02 06:56:49;;;;;;;7.50;4.97;;;;;;;25.65;50.73;99557.00;5021396;28;20057;-86
2022/06/02 06:59:20;;;;;;;10.05;5.43;;;;;;;25.72;50.97;99559.41;5022102;28;20084;-87
2022/06/02 07:01:54;;;;;;;;;;;;;;;25.61;51.14;99561.31;5021996;28;20037;-87
2022/06/02 07:04:47;;;;;;;6.03;4.60;;;;;;;25.83;50.39;99562.88;5013862;28;19913;-87
2022/06/02 07:07:29;;;;;;;7.38;6.40;;;;;;;25.92;50.07;99564.72;5012793;28;20032;-86
2022/06/02 07:10:29;;;;;;;5.55;4.68;;;;;;;25.89;50.35;99535.50;5018923;28;20080;-85
2022/06/02 07:13:07;;;;;;;6.78;5.38;;;;;;;25.77;49.87;99532.34;5012438;28;20046;-86
2022/06/02 07:15:45;;;;;;;6.10;4.70;;;;;;;26.12;49.53;99544.06;5015638;28;20110;-87
2022/06/02 07:18:13;;;;;;;5.00;4.40;;;;;;;26.28;49.53;99569.94;5022567;28;20065;-86
2022/06/02 07:20:57;;;;;;;5.35;4.85;;;;;;;26.26;49.34;99570.22;5024482;28;20498;-86
2022/06/02 07:23:49;;;;;;;6.70;5.70;;;;;;;26.12;48.67;99550.28;5028210;28;20033;-84
2022/06/02 07:26:36;;;;;;;7.15;5.40;;;;;;;26.43;48.87;99574.50;5012840;28;20462;-85
2022/06/02 07:29:12;;;;;;;7.30;5.00;;;;;;;26.51;48.60;99569.28;5025464;28;20037;-86
2022/06/02 07:31:57;;;;;;;6.15;5.07;;;;;;;26.61;48.19;99568.41;5037476;28;20085;-86
2022/06/02 07:34:38;;;;;;;6.60;5.07;;;;;;;26.66;47.15;99564.84;5010943;28;20120;-85
2022/06/02 07:37:29;;;;;;;7.70;5.95;;;;;;;26.71;47.68;99562.09;5011885;28;20033;-86
2022/06/02 07:40:20;;;;;;;8.05;5.28;;;;;;;26.55;47.49;99535.13;5012613;28;20033;-86
2022/06/02 07:43:22;;;;;;;5.75;4.22;;;;;;;26.92;46.78;99571.69;5018206;28;20422;-86
2022/06/02 07:46:00;;;;;;;5.78;4.63;;;;;;;27.01;46.95;99577.31;5008655;28;20034;-85
2022/06/02 07:49:03;;;;;;;6.35;5.38;;;;;;;27.07;47.02;99584.31;5024691;28;20043;-85
2022/06/02 07:51:41;;;;;;;11.52;5.25;;;;;;;26.82;46.60;99523.00;5014388;28;20087;-87
2022/06/02 07:54:19;;;;;;;7.43;5.28;;;;;;;27.22;46.57;99579.53;5024972;28;20120;-86
2022/06/02 07:57:14;;;;;;;5.88;4.75;;;;;;;27.29;46.32;99579.22;5007652;28;20045;-87
2022/06/02 08:00:01;;;;;;;7.15;5.00;;;;;;;27.34;46.02;99581.06;5028683;28;20029;-87
2022/06/02 08:02:39;;;;;;;7.28;4.78;;;;;;;27.42;46.04;99581.22;5014491;28;20048;-86
2022/06/02 08:05:16;;;;;;;7.70;5.03;;;;;;;27.12;46.04;99521.94;5011791;28;20092;-86
2022/06/02 08:07:49;;;;;;;7.10;4.65;;;;;;;27.43;45.65;99565.78;5014069;28;20108;-86
2022/06/02 08:10:41;;;;;;;7.82;4.57;;;;;;;27.65;45.66;99574.25;5017751;28;20047;-87
2022/06/02 08:13:09;;;;;;;4.88;4.43;;;;;;;27.70;45.56;99566.06;5026588;28;20037;-85
2022/06/02 08:15:50;;;;;;;4.93;4.28;;;;;;;27.61;45.57;99531.72;5028994;28;20021;-86
2022/06/02 08:18:37;;;;;;;7.57;5.97;;;;;;;27.88;45.22;99566.38;5013910;28;20040;-88
2022/06/02 08:21:21;;;;;;;7.97;4.88;;;;;;;27.78;44.65;99553.75;5013514;28;20036;-85
2022/06/02 08:24:07;;;;;;;7.15;5.18;;;;;;;28.05;44.77;99559.34;5009288;28;20029;-85
2022/06/02 08:27:08;;;;;;;7.97;5.97;;;;;;;27.80;44.43;99517.09;5011484;28;20018;-85
2022/06/02 08:29:33;;;;;;;6.97;5.17;;;;;;;28.16;44.75;99566.25;5014820;28;20038;-86
2022/06/02 08:32:14;;;;;;;8.88;4.70;;;;;;;28.22;44.05;99572.41;5041706;28;20029;-87
2022/06/02 08:35:04;;;;;;;7.47;4.63;;;;;;;28.32;44.37;99568.81;5030973;28;20517;-86
2022/06/02 08:37:41;;;;;;;7.07;4.07;;;;;;;28.47;43.74;99561.22;5024305;28;20037;-86
2022/06/02 08:40:16;;;;;;;6.22;5.07;;;;;;;28.58;43.36;99556.44;5017150;28;20037;-86
2022/06/02 08:43:00;;;;;;;7.95;6.07;;;;;;;28.69;43.09;99559.78;5025269;28;20030;-86
2022/06/02 08:45:44;;;;;;;5.93;4.88;;;;;;;28.82;42.76;99561.75;5022280;28;20025;-86
2022/06/02 08:49:07;;;;;;;6.95;6.00;;;;;;;28.34;42.66;99476.97;5016816;28;20034;-84
2022/06/02 08:52:10;;;;;;;8.45;5.32;;;;;;;29.03;41.10;99559.53;5013857;28;20116;-85
2022/06/02 08:54:50;;;;;;;7.80;4.70;;;;;;;29.14;41.38;99552.00;5016154;28;20051;-86
2022/06/02 08:57:46;;;;;;;7.87;5.53;;;;;;;29.29;41.01;99557.16;5025107;28;20037;-84
2022/06/02 09:00:48;;;;;;;16.92;13.23;;;;;;;29.47;39.95;99553.56;5016004;28;20033;-85
2022/06/02 09:03:17;;;;;;;7.55;4.80;;;;;;;29.56;40.80;99553.66;5017809;28;20048;-86
2022/06/02 09:05:48;;;;;;;8.35;6.15;;;;;;;29.69;40.69;99558.28;5018475;28;20641;-85
2022/06/02 09:08:45;;;;;;;7.20;4.75;;;;;;;29.82;39.55;99567.56;5018800;28;20112;-86
2022/06/02 09:11:32;;;;;;;8.13;4.75;;;;;;;29.96;40.27;99561.00;5033511;28;20022;-86
2022/06/02 09:14:23;;;;;;;10.07;5.45;;;;;;;30.17;39.22;99553.19;5026884;28;20105;-85
2022/06/02 09:17:06;;;;;;;;;;;;;;;30.07;39.66;99550.72;5044089;28;20034;-84
2022/06/02 09:19:42;;;;;;;5.32;4.72;;;;;;;30.38;39.19;99550.00;5053077;28;19916;-85
2022/06/02 09:22:10;;;;;;;6.60;5.22;;;;;;;30.59;39.02;99540.28;5040755;28;20030;-86
2022/06/02 09:24:51;;;;;;;8.70;6.35;;;;;;;30.35;38.52;99478.69;5032080;28;20112;-86
2022/06/02 09:27:42;;;;;;;6.97;5.03;;;;;;;31.17;38.15;99542.88;5033416;28;20116;-85
2022/06/02 09:30:26;;;;;;;8.07;4.35;;;;;;;31.42;37.45;99546.84;5040306;28;20103;-85
2022/06/02 09:36:27;;;;;;;7.47;5.15;;;;;;;31.80;37.12;99541.69;5054385;28;20043;-86
2022/06/02 09:38:59;;;;;;;7.80;5.50;;;;;;;32.02;36.99;99546.22;5053838;28;20029;-85
2022/06/02 09:41:30;;;;;;;6.95;5.25;;;;;;;32.21;36.37;99537.72;5017298;28;20029;-86
2022/06/02 09:44:03;;;;;;;;;;;;;;;32.28;36.16;99538.06;5014975;28;20088;-85
2022/06/02 09:47:08;;;;;;;9.07;5.70;;;;;;;32.57;35.55;99534.66;5028625;28;20382;-86
2022/06/02 09:49:46;;;;;;;8.73;5.32;;;;;;;32.63;35.85;99530.63;5032900;28;20410;-85
2022/06/02 09:52:29;;;;;;;9.43;5.15;;;;;;;32.52;34.90;99494.63;5023495;28;20095;-86
2022/06/02 09:55:18;;;;;;;6.25;5.10;;;;;;;32.88;34.56;99526.28;5043246;28;20568;-86
2022/06/02 09:58:02;;;;;;;9.60;6.20;;;;;;;32.32;34.97;99445.31;5035261;28;20037;-85
2022/06/02 10:00:39;;;;;;;7.75;6.95;;;;;;;33.18;34.74;99532.63;5030825;28;20033;-86
2022/06/02 10:03:32;;;;;;;6.13;5.28;;;;;;;33.45;32.63;99531.41;5045397;28;20113;-84
2022/06/02 10:06:31;;;;;;;8.90;5.32;;;;;;;33.52;33.59;99528.97;5033780;28;20061;-85
2022/06/02 10:09:22;;;;;;;9.05;5.45;;;;;;;33.60;33.05;99530.03;5032777;28;20033;-84
2022/06/02 10:15:41;;;;;;;11.77;6.15;;;;;;;34.16;32.24;99523.22;5034800;28;20090;-86
2022/06/02 10:18:15;;;;;;;8.63;5.57;;;;;;;34.37;32.04;99517.78;5033167;28;20087;-85
2022/06/02 10:21:12;;;;;;;9.48;5.07;;;;;;;34.49;31.49;99519.75;5048913;28;20321;-87
2022/06/02 10:24:06;;;;;;;6.68;4.78;;;;;;;34.71;31.24;99517.44;5037236;28;20498;-85
2022/06/02 10:26:53;;;;;;;8.30;5.70;;;;;;;34.77;31.18;99517.22;5037116;28;20052;-86
2022/06/02 10:29:56;;;;;;;4.10;3.67;;;;;;;34.77;30.33;99508.97;5038884;28;20181;-85
2022/06/02 10:32:36;;;;;;;7.50;6.15;;;;;;;34.81;31.02;99507.97;5033542;28;20021;-85
2022/06/02 10:35:37;;;;;;;7.32;5.93;;;;;;;34.77;30.68;99508.97;5043827;28;20466;-85
2022/06/02 10:38:15;;;;;;;6.00;4.47;;;;;;;35.02;30.21;99513.41;5036028;28;20033;-84
2022/06/02 10:40:59;;;;;;;5.82;5.00;;;;;;;35.16;29.57;99502.91;5059021;28;20028;-85
2022/06/02 10:44:02;;;;;;;9.57;5.72;;;;;;;35.15;29.94;99498.56;5057376;28;20032;-86
2022/06/02 10:46:55;;;;;;;7.35;4.97;;;;;;;35.19;29.62;99494.00;5033424;28;20036;-85
2022/06/02 10:49:33;;;;;;;5.13;4.63;;;;;;;35.34;29.43;99492.53;5039076;28;20075;-87
2022/06/02 10:52:04;;;;;;;9.30;5.45;;;;;;;35.32;27.78;99498.38;5045128;28;20040;-84
2022/06/02 10:55:14;;;;;;;7.18;5.03;;;;;;;35.44;27.94;99496.75;5038749;28;20061;-87
2022/06/02 10:58:14;;;;;;;6.93;5.38;;;;;;;35.58;28.56;99494.44;5030853;28;20481;-87
2022/06/02 11:00:45;;;;;;;5.57;5.07;;;;;;;35.58;28.17;99483.47;5040535;28;20036;-86
2022/06/02 11:03:48;;;;;;;6.03;4.57;;;;;;;35.85;26.83;99488.25;5033155;28;20026;-87
2022/06/02 11:06:55;;;;;;;7.15;5.05;;;;;;;35.96;27.28;99458.34;5056451;28;20032;-85
2022/06/02 11:09:38;;;;;;;8.63;6.00;;;;;;;36.29;26.83;99472.66;5025202;28;20033;-87
2022/06/02 11:12:35;;;;;;;8.10;5.30;;;;;;;36.35;26.30;99472.41;5013464;28;20034;-86
2022/06/02 11:15:29;;;;;;;8.38;6.70;;;;;;;35.95;27.34;99427.31;5044240;28;20523;-86
2022/06/02 11:18:42;;;;;;;9.93;5.97;;;;;;;35.17;27.43;99383.75;5046996;28;20029;-87
2022/06/02 11:21:32;;;;;;;9.00;4.88;;;;;;;35.30;28.07;99469.63;5038972;28;20040;-88
2022/06/02 11:24:15;;;;;;;4.88;3.70;;;;;;;34.71;27.96;99472.75;5033123;28;20022;-86
2022/06/02 11:27:05;;;;;;;5.10;4.03;;;;;;;34.59;28.05;99465.28;5035322;28;20410;-86
2022/06/02 11:30:04;;;;;;;6.67;5.30;;;;;;;34.15;28.08;99345.44;5046093;28;20032;-86
2022/06/02 11:32:57;;;;;;;6.47;3.25;;;;;;;34.81;27.06;99464.06;5046640;28;20124;-86
2022/06/02 11:36:19;;;;;;;4.93;3.42;;;;;;;34.40;28.27;99465.00;5040618;28;20033;-86
2022/06/02 11:39:03;;;;;;;7.25;3.60;;;;;;;33.54;29.32;99397.22;4998446;28;20558;-85
2022/06/02 11:41:45;;;;;;;5.70;4.57;;;;;;;32.69;29.72;99323.47;5001367;28;20209;-85
2022/06/02 11:44:19;;;;;;;5.40;3.83;;;;;;;33.39;29.83;99456.88;5032568;28;20045;-85
2022/06/02 11:46:57;;;;;;;7.40;5.53;;;;;;;33.30;29.80;99452.59;5033210;28;20112;-86
2022/06/02 11:49:28;;;;;;;7.78;3.67;;;;;;;33.52;29.67;99456.97;5048069;28;20036;-85
2022/06/02 11:52:34;;;;;;;6.35;4.43;;;;;;;33.79;29.28;99407.16;5034818;28;20477;-88
2022/06/02 11:55:30;;;;;;;7.35;5.95;;;;;;;34.66;29.16;99446.34;5036269;28;20532;-86
2022/06/02 11:58:18;;;;;;;8.02;4.88;;;;;;;34.99;28.25;99445.50;5038847;28;20028;-87
2022/06/02 12:01:02;;;;;;;10.05;3.92;;;;;;;35.30;27.69;99442.16;5037295;28;20049;-88
2022/06/02 12:03:50;;;;;;;5.63;3.50;;;;;;;35.27;27.80;99443.66;5046737;28;20478;-88
2022/06/02 12:06:52;;;;;;;5.97;4.15;;;;;;;35.55;27.33;99434.72;5032493;28;20029;-87
2022/06/02 12:09:38;;;;;;;7.03;5.95;;;;;;;35.69;27.26;99429.69;5034631;28;20033;-88
2022/06/02 12:12:18;;;;;;;7.53;6.82;;;;;;;35.51;27.23;99356.91;5038324;28;20413;-88
2022/06/02 12:14:56;;;;;;;6.05;3.83;;;;;;;36.15;25.45;99411.75;5030307;28;20033;-87
2022/06/02 12:18:00;;;;;;;5.55;4.13;;;;;;;36.49;25.52;99423.31;5033815;28;20095;-88
2022/06/02 12:21:05;;;;;;;6.43;4.15;;;;;;;36.67;24.43;99410.81;5009995;28;20042;-87
2022/06/02 12:23:48;;;;;;;6.07;3.53;;;;;;;36.80;24.39;99406.84;5035663;28;20044;-88
2022/06/02 12:26:44;;;;;;;7.53;5.70;;;;;;;36.96;25.14;99404.06;5039923;28;20037;-87
2022/06/02 12:29:32;;;;;;;4.90;4.00;;;;;;;37.18;24.23;99406.19;5050195;28;20457;-89
2022/06/02 12:32:11;;;;;;;4.88;4.38;;;;;;;37.33;24.58;99409.28;5055904;28;20033;-89
2022/06/02 12:34:54;;;;;;;5.40;3.00;;;;;;;37.47;23.79;99410.38;5049660;28;20490;-87
2022/06/02 12:37:26;;;;;;;9.23;7.50;;;;;;;37.65;23.68;99412.72;5041547;28;20040;-89
2022/06/02 12:40:10;;;;;;;6.07;3.20;;;;;;;37.83;23.88;99398.16;5044286;28;20045;-88
2022/06/02 12:43:09;;;;;;;7.57;6.05;;;;;;;37.26;23.49;99324.56;5036255;28;20064;-89
2022/06/02 12:45:53;;;;;;;9.80;5.40;;;;;;;37.22;24.33;99407.06;5045815;28;20547;-89
2022/06/02 12:48:53;;;;;;;6.15;3.85;;;;;;;36.75;24.94;99406.28;5039412;28;20043;-88
2022/06/02 12:51:39;;;;;;;6.65;3.78;;;;;;;35.99;26.52;99419.16;5031157;28;20021;-88
2022/06/02 12:54:08;;;;;;;10.98;6.20;;;;;;;35.33;27.49;99409.38;5035280;28;20032;-88
2022/06/02 12:57:13;;;;;;;9.63;4.97;;;;;;;34.82;28.58;99410.00;5037133;28;20059;-88
2022/06/02 13:00:01;;;;;;;9.50;6.88;;;;;;;34.90;28.99;99420.09;5049894;28;20032;-88
2022/06/02 13:02:52;;;;;;;9.18;8.15;;;;;;;34.24;29.02;99299.56;5039760;28;20052;-88
2022/06/02 13:05:17;;;;;;;9.45;6.63;;;;;;;34.83;28.92;99409.69;5036234;28;20036;-88
2022/06/02 13:08:20;;;;;;;10.20;6.15;;;;;;;34.77;28.34;99413.78;5037809;28;20405;-88
2022/06/02 13:10:58;;;;;;;7.15;6.53;;;;;;;34.50;28.38;99411.69;5039123;28;20048;-85